createdAt,value
2018-10-09T00:02:11.205Z,13.38
2018-10-09T00:04:38.210Z,13.10
2018-10-09T00:07:05.255Z,13.40
2018-10-09T00:09:32.304Z,14.35
2018-10-09T00:11:59.357Z,13.57
2018-10-09T00:14:26.402Z,14.55
2018-10-09T00:16:53.450Z,13.95
2018-10-09T00:19:20.504Z,16.12
2018-10-09T00:21:47.443Z,13.27
2018-10-09T00:24:14.458Z,13.57
2018-10-09T00:26:41.541Z,14.68
2018-10-09T00:29:08.593Z,13.77
2018-10-09T00:31:35.743Z,16.08
2018-10-09T00:34:02.734Z,16.25
2018-10-09T00:36:29.841Z,14.38
2018-10-09T00:38:56.887Z,14.63
2018-10-09T00:41:24.038Z,15.05
2018-10-09T00:43:51.092Z,15.85
2018-10-09T00:46:18.136Z,18.23
2018-10-09T00:48:45.183Z,15.68
2018-10-09T00:51:12.256Z,15.45
2018-10-09T00:53:39.284Z,14.60
2018-10-09T00:56:06.330Z,16.00
2018-10-09T00:58:33.387Z,16.20
2018-10-09T01:01:00.377Z,15.60
2018-10-09T01:03:27.378Z,14.95
2018-10-09T01:05:54.365Z,17.20
2018-10-09T01:08:21.313Z,19.65
2018-10-09T01:10:48.524Z,18.33
2018-10-09T01:13:15.581Z,16.70
2018-10-09T01:15:42.615Z,15.95
2018-10-09T01:18:09.605Z,17.60
2018-10-09T01:20:36.609Z,16.52
2018-10-09T01:23:03.535Z,16.93
2018-10-09T01:25:30.512Z,17.33
2018-10-09T01:27:57.552Z,19.37
2018-10-09T01:30:24.603Z,17.27
2018-10-09T01:32:51.655Z,16.90
2018-10-09T01:35:18.698Z,17.75
2018-10-09T01:37:45.748Z,17.12
2018-10-09T01:40:13.000Z,17.00
2018-10-09T01:42:40.050Z,15.03
2018-10-09T01:45:07.102Z,16.13
2018-10-09T01:47:35.272Z,15.60
2018-10-09T01:50:02.330Z,19.27
2018-10-09T01:52:30.287Z,16.07
2018-10-09T01:54:57.340Z,15.93
2018-10-09T01:57:24.394Z,17.57
2018-10-09T01:59:51.438Z,15.67
2018-10-09T02:02:18.485Z,17.17
2018-10-09T02:04:45.433Z,16.60
2018-10-09T02:07:12.385Z,20.37
2018-10-09T02:09:39.432Z,17.60
2018-10-09T02:12:26.691Z,17.60
2018-10-09T02:15:08.581Z,15.60
2018-10-09T02:17:35.704Z,16.57
2018-10-09T02:20:02.950Z,20.53
2018-10-09T02:22:30.100Z,16.87
2018-10-09T02:24:57.159Z,15.60
2018-10-09T02:27:24.198Z,16.43
2018-10-09T02:29:51.266Z,16.53
2018-10-09T02:32:18.303Z,16.77
2018-10-09T02:34:45.345Z,17.37
2018-10-09T02:37:12.393Z,16.87
2018-10-09T02:39:39.447Z,20.73
2018-10-09T02:42:06.490Z,18.60
2018-10-09T02:44:33.643Z,18.27
2018-10-09T02:47:00.594Z,17.83
2018-10-09T02:49:28.195Z,19.30
2018-10-09T02:51:55.201Z,16.50
2018-10-09T02:54:22.246Z,16.50
2018-10-09T02:56:49.330Z,16.80
2018-10-09T02:59:16.348Z,16.80
2018-10-09T03:01:43.598Z,16.40
2018-10-09T03:04:10.650Z,14.93
2018-10-09T03:06:37.692Z,15.87
2018-10-09T03:09:04.844Z,17.47
2018-10-09T03:11:31.893Z,15.83
2018-10-09T03:13:59.964Z,15.33
2018-10-09T03:16:26.954Z,14.77
2018-10-09T03:18:53.902Z,16.07
2018-10-09T03:21:22.442Z,13.40
2018-10-09T03:23:49.395Z,14.40
2018-10-09T03:26:16.436Z,15.73
2018-10-09T03:28:43.486Z,13.00
2018-10-09T03:31:10.540Z,12.37
2018-10-09T03:33:37.584Z,14.17
2018-10-09T03:36:04.582Z,11.67
2018-10-09T03:38:31.686Z,9.87
2018-10-09T03:40:58.729Z,9.83
2018-10-09T03:43:25.778Z,9.03
2018-10-09T03:45:52.830Z,8.37
2018-10-09T03:48:20.078Z,7.83
2018-10-09T03:50:47.026Z,7.73
2018-10-09T03:53:14.073Z,7.07
2018-10-09T03:55:41.741Z,7.30
2018-10-09T03:58:30.619Z,6.43
2018-10-09T04:00:57.644Z,8.83
2018-10-09T04:03:24.591Z,9.17
2018-10-09T04:05:51.641Z,8.73
2018-10-09T04:08:18.791Z,7.07
2018-10-09T04:10:45.845Z,7.63
2018-10-09T04:13:12.887Z,9.17
2018-10-09T04:15:39.936Z,6.80
2018-10-09T04:18:06.991Z,7.50
2018-10-09T04:20:34.034Z,9.23
2018-10-09T04:23:02.724Z,6.83
2018-10-09T04:25:29.769Z,10.10
2018-10-09T04:27:56.822Z,10.93
2018-10-09T04:30:23.868Z,6.53
2018-10-09T04:32:50.916Z,9.27
2018-10-09T04:35:18.027Z,9.07
2018-10-09T04:37:47.307Z,6.53
2018-10-09T04:40:14.315Z,8.53
2018-10-09T04:42:41.364Z,8.63
2018-10-09T04:45:08.416Z,10.60
2018-10-09T04:47:35.774Z,6.63
2018-10-09T04:50:02.814Z,9.93
2018-10-09T04:52:30.272Z,7.87
2018-10-09T04:54:57.425Z,7.10
2018-10-09T04:57:24.479Z,9.40
2018-10-09T04:59:51.731Z,8.30
2018-10-09T05:02:18.982Z,7.50
2018-10-09T05:04:46.033Z,6.37
2018-10-09T05:07:13.083Z,7.00
2018-10-09T05:09:40.269Z,7.63
2018-10-09T05:12:07.299Z,6.13
2018-10-09T05:14:34.427Z,9.40
2018-10-09T05:17:03.012Z,6.57
2018-10-09T05:19:29.958Z,6.27
2018-10-09T05:21:57.623Z,6.23
2018-10-09T05:24:25.387Z,5.97
2018-10-09T05:26:52.333Z,5.87
2018-10-09T05:29:21.436Z,7.87
2018-10-09T05:31:48.585Z,7.37
2018-10-09T05:34:15.630Z,7.30
2018-10-09T05:37:04.939Z,9.30
2018-10-09T05:39:49.844Z,7.27
2018-10-09T05:42:29.912Z,6.80
2018-10-09T05:44:56.907Z,8.23
2018-10-09T05:47:25.657Z,6.40
2018-10-09T05:49:52.711Z,7.83
2018-10-09T05:52:19.754Z,6.53
2018-10-09T05:54:48.033Z,7.20
2018-10-09T05:57:15.086Z,8.80
2018-10-09T05:59:42.129Z,9.73
2018-10-09T06:02:10.202Z,8.70
2018-10-09T06:04:37.250Z,7.43
2018-10-09T06:07:05.677Z,8.90
2018-10-09T06:09:50.948Z,7.10
2018-10-09T06:12:17.959Z,6.83
2018-10-09T06:14:44.907Z,10.33
2018-10-09T06:17:11.955Z,6.63
2018-10-09T06:19:38.997Z,8.03
2018-10-09T06:22:24.647Z,7.47
2018-10-09T06:24:51.733Z,7.53
2018-10-09T06:27:18.783Z,7.80
2018-10-09T06:29:45.835Z,6.83
2018-10-09T06:32:12.879Z,12.37
2018-10-09T06:34:39.928Z,6.20
2018-10-09T06:37:06.986Z,7.03
2018-10-09T06:39:34.024Z,6.70
2018-10-09T06:42:00.978Z,7.37
2018-10-09T06:44:28.021Z,7.07
2018-10-09T06:46:55.069Z,6.83
2018-10-09T06:49:22.121Z,6.87
2018-10-09T06:51:49.165Z,7.53
2018-10-09T06:54:16.297Z,6.93
2018-10-09T06:56:44.695Z,7.83
2018-10-09T06:59:11.745Z,9.27
2018-10-09T07:01:38.799Z,8.80
2018-10-09T07:04:06.356Z,11.40
2018-10-09T07:06:33.504Z,11.27
2018-10-09T07:09:00.585Z,12.00
2018-10-09T07:11:28.590Z,11.60
2018-10-09T07:13:55.676Z,13.07
2018-10-09T07:16:22.722Z,13.90
2018-10-09T07:18:51.103Z,12.87
2018-10-09T07:21:18.156Z,13.30
2018-10-09T07:23:45.307Z,13.63
2018-10-09T07:26:13.875Z,15.90
2018-10-09T07:28:40.937Z,14.63
2018-10-09T07:31:07.990Z,14.23
2018-10-09T07:33:35.033Z,14.23
2018-10-09T07:36:13.264Z,14.73
2018-10-09T07:38:40.394Z,17.90
2018-10-09T07:41:07.444Z,15.75
2018-10-09T07:43:34.389Z,15.93
2018-10-09T07:49:12.641Z,15.05
2018-10-09T07:51:56.180Z,16.92
2018-10-09T07:54:28.796Z,14.93
2018-10-09T07:56:55.789Z,16.30
2018-10-09T07:59:22.839Z,15.68
2018-10-09T08:01:50.703Z,14.38
2018-10-09T08:04:17.794Z,15.00
2018-10-09T08:07:04.332Z,15.65
2018-10-09T08:09:47.154Z,15.35
2018-10-09T08:12:14.121Z,15.27
2018-10-09T08:14:41.477Z,14.80
2018-10-09T08:17:09.857Z,15.45
2018-10-09T08:19:38.953Z,15.43
2018-10-09T08:22:06.000Z,15.95
2018-10-09T08:24:33.057Z,16.15
2018-10-09T08:27:00.100Z,15.10
2018-10-09T08:29:28.071Z,16.62
2018-10-09T08:31:55.123Z,16.77
2018-10-09T08:34:22.172Z,16.37
2018-10-09T08:36:49.215Z,15.95
2018-10-09T08:39:17.083Z,16.00
2018-10-09T08:41:44.233Z,14.60
2018-10-09T08:44:12.613Z,17.83
2018-10-09T08:46:39.602Z,18.05
2018-10-09T08:49:08.349Z,15.25
2018-10-09T08:51:35.402Z,17.08
2018-10-09T08:54:02.446Z,16.35
2018-10-09T08:56:29.907Z,16.00
2018-10-09T08:58:56.959Z,22.17
2018-10-09T09:01:24.011Z,16.40
2018-10-09T09:03:52.177Z,19.95
2018-10-09T09:06:19.329Z,20.52
2018-10-09T09:08:46.273Z,18.10
2018-10-09T09:11:13.425Z,16.95
2018-10-09T09:13:41.067Z,16.08
2018-10-09T09:16:08.292Z,17.80
2018-10-09T09:18:35.494Z,17.87
2018-10-09T09:21:02.541Z,18.55
2018-10-09T09:23:29.596Z,16.87
2018-10-09T09:25:56.640Z,17.70
2018-10-09T09:28:23.688Z,17.20
2018-10-09T09:30:50.741Z,19.65
2018-10-09T09:33:17.800Z,17.62
2018-10-09T09:35:44.938Z,22.00
2018-10-09T09:38:12.086Z,20.08
2018-10-09T09:40:39.239Z,15.82
2018-10-09T09:43:06.286Z,16.80
2018-10-09T09:45:33.438Z,15.60
2018-10-09T09:48:01.413Z,18.00
2018-10-09T09:50:28.457Z,17.02
2018-10-09T09:52:55.509Z,18.73
2018-10-09T09:55:22.558Z,17.83
2018-10-09T09:57:49.677Z,19.87
2018-10-09T10:00:32.963Z,18.42
2018-10-09T10:02:59.987Z,18.80
2018-10-09T10:05:28.058Z,18.77
2018-10-09T10:07:55.103Z,24.42
2018-10-09T10:10:22.152Z,21.45
2018-10-09T10:12:49.168Z,19.98
2018-10-09T10:15:16.452Z,18.33
2018-10-09T10:17:45.447Z,19.37
2018-10-09T10:20:12.506Z,19.15
2018-10-09T10:22:39.488Z,18.67
2018-10-09T10:25:06.497Z,16.73
2018-10-09T10:27:33.541Z,18.67
2018-10-09T10:30:01.306Z,20.77
2018-10-09T10:32:28.458Z,20.50
2018-10-09T10:34:55.505Z,22.58
2018-10-09T10:37:23.597Z,22.92
2018-10-09T10:39:50.632Z,19.02
2018-10-09T10:42:17.771Z,16.95
2018-10-09T10:44:44.724Z,21.23
2018-10-09T10:47:12.490Z,19.95
2018-10-09T10:49:39.746Z,21.30
2018-10-09T10:52:06.796Z,20.27
2018-10-09T10:54:34.252Z,20.52
2018-10-09T10:57:01.304Z,23.20
2018-10-09T10:59:28.349Z,21.67
2018-10-09T11:01:55.509Z,19.77
2018-10-09T11:04:22.520Z,18.77
2018-10-09T11:06:49.515Z,21.45
2018-10-09T11:09:16.567Z,21.83
2018-10-09T11:11:43.615Z,19.85
2018-10-09T11:14:10.660Z,21.27
2018-10-09T11:16:37.606Z,19.83
2018-10-09T11:19:04.655Z,20.05
2018-10-09T11:21:33.352Z,19.30
2018-10-09T11:24:00.596Z,19.30
2018-10-09T11:26:27.643Z,18.80
2018-10-09T11:28:54.696Z,19.80
2018-10-09T11:31:21.740Z,19.35
2018-10-09T11:33:48.791Z,19.50
2018-10-09T11:36:17.885Z,21.62
2018-10-09T11:38:45.144Z,22.65
2018-10-09T11:41:12.605Z,23.02
2018-10-09T11:43:39.646Z,20.73
2018-10-09T11:46:06.646Z,21.90
2018-10-09T11:48:33.845Z,20.27
2018-10-09T11:51:01.208Z,22.42
2018-10-09T11:53:28.251Z,22.27
2018-10-09T11:55:55.205Z,23.75
2018-10-09T11:58:22.195Z,20.05
2018-10-09T12:00:49.293Z,25.27
2018-10-09T12:03:16.548Z,22.75
2018-10-09T12:05:43.558Z,21.23
2018-10-09T12:08:10.782Z,22.48
2018-10-09T12:10:38.417Z,23.00
2018-10-09T12:13:05.714Z,24.27
2018-10-09T12:15:32.716Z,24.05
2018-10-09T12:17:59.965Z,21.75
2018-10-09T12:20:27.633Z,22.33
2018-10-09T12:22:54.784Z,22.17
2018-10-09T12:25:22.031Z,20.98
2018-10-09T12:27:49.184Z,26.05
2018-10-09T12:30:17.028Z,21.30
2018-10-09T12:32:44.149Z,22.83
2018-10-09T12:35:13.984Z,21.12
2018-10-09T12:37:41.269Z,22.83
2018-10-09T12:40:09.593Z,23.40
2018-10-09T12:42:37.138Z,22.50
2018-10-09T12:45:04.421Z,25.80
2018-10-09T12:47:32.596Z,23.20
2018-10-09T12:50:01.253Z,22.77
2018-10-09T12:52:28.421Z,21.15
2018-10-09T12:54:55.735Z,21.55
2018-10-09T12:57:22.983Z,20.35
2018-10-09T12:59:50.180Z,21.27
2018-10-09T13:02:18.001Z,20.70
2018-10-09T13:04:47.815Z,22.65
2018-10-09T13:07:15.069Z,22.20
2018-10-09T13:09:43.141Z,25.98
2018-10-09T13:12:10.189Z,21.00
2018-10-09T13:14:37.859Z,22.85
2018-10-09T13:17:05.234Z,22.17
2018-10-09T13:19:32.359Z,22.13
2018-10-09T13:21:59.784Z,21.37
2018-10-09T13:24:27.123Z,22.13
2018-10-09T13:26:54.119Z,20.45
2018-10-09T13:29:21.273Z,20.98
2018-10-09T13:31:48.730Z,20.48
2018-10-09T13:34:15.778Z,20.40
2018-10-09T13:36:42.974Z,23.20
2018-10-09T13:39:10.181Z,19.77
2018-10-09T13:41:37.947Z,22.55
2018-10-09T13:44:05.178Z,22.08
2018-10-09T13:46:53.362Z,20.35
2018-10-09T13:49:36.703Z,21.20
2018-10-09T13:52:03.834Z,21.73
2018-10-09T13:54:30.876Z,24.00
2018-10-09T13:56:57.926Z,22.23
2018-10-09T13:59:25.122Z,20.90
2018-10-09T14:01:54.212Z,21.80
2018-10-09T14:04:21.433Z,22.80
2018-10-09T14:06:48.479Z,22.60
2018-10-09T14:09:16.347Z,21.10
2018-10-09T14:11:43.499Z,22.02
2018-10-09T14:14:10.651Z,20.23
2018-10-09T14:16:37.695Z,19.75
2018-10-09T14:19:05.047Z,21.67
2018-10-09T14:21:32.408Z,21.73
2018-10-09T14:23:59.452Z,21.05
2018-10-09T14:26:26.437Z,21.98
2018-10-09T14:28:53.446Z,21.20
2018-10-09T14:31:21.035Z,22.30
2018-10-09T14:33:48.874Z,21.52
2018-10-09T14:36:16.128Z,25.35
2018-10-09T14:38:43.279Z,21.52
2018-10-09T14:41:10.328Z,22.40
2018-10-09T14:43:39.935Z,21.67
2018-10-09T14:46:07.087Z,22.25
2018-10-09T14:48:34.239Z,22.27
2018-10-09T14:51:01.599Z,24.33
2018-10-09T14:53:28.750Z,23.55
2018-10-09T14:55:55.998Z,23.58
2018-10-09T14:58:22.944Z,23.73
2018-10-09T15:00:50.403Z,24.33
2018-10-09T15:03:17.556Z,24.20
2018-10-09T15:05:44.909Z,23.60
2018-10-09T15:08:13.125Z,24.05
2018-10-09T15:10:40.235Z,23.83
2018-10-09T15:13:07.388Z,22.92
2018-10-09T15:15:34.538Z,26.62
2018-10-09T15:18:04.094Z,24.40
2018-10-09T15:20:31.101Z,23.70
2018-10-09T15:22:58.140Z,23.77
2018-10-09T15:25:25.400Z,29.33
2018-10-09T15:28:12.992Z,24.67
2018-10-09T15:30:47.022Z,23.85
2018-10-09T15:33:15.139Z,24.23
2018-10-09T15:35:43.499Z,24.85
2018-10-09T15:38:11.589Z,24.95
2018-10-09T15:40:39.124Z,26.95
2018-10-09T15:43:09.789Z,30.35
2018-10-09T15:45:36.806Z,24.67
2018-10-09T15:48:04.314Z,27.55
2018-10-09T15:50:49.783Z,24.35
2018-10-09T15:53:17.750Z,25.70
2018-10-09T15:55:44.866Z,29.52
2018-10-09T15:58:14.220Z,25.90
2018-10-09T16:00:42.902Z,27.02
2018-10-09T16:03:11.184Z,30.23
2018-10-09T16:05:38.593Z,25.15
2018-10-09T16:08:06.000Z,28.42
2018-10-09T16:10:34.376Z,25.50
2018-10-09T16:13:03.866Z,29.63
2018-10-09T16:15:32.210Z,23.73
2018-10-09T16:17:59.836Z,25.88
2018-10-09T16:20:27.979Z,24.83
2018-10-09T16:22:56.376Z,24.70
2018-10-09T16:25:24.646Z,25.95
2018-10-09T16:27:53.603Z,24.73
2018-10-09T16:30:22.953Z,26.85
2018-10-09T16:32:50.991Z,27.13
2018-10-09T16:35:18.772Z,39.00
2018-10-09T16:37:47.219Z,44.15
2018-10-09T16:40:15.518Z,28.75
2018-10-09T16:42:42.654Z,31.55
2018-10-09T16:45:12.876Z,26.92
2018-10-09T16:47:42.713Z,28.27
2018-10-09T16:50:11.197Z,27.87
2018-10-09T16:52:40.677Z,30.65
2018-10-09T16:55:11.149Z,28.35
2018-10-09T16:57:38.868Z,29.12
2018-10-09T17:00:07.613Z,27.90
2018-10-09T17:02:37.034Z,28.40
2018-10-09T17:05:05.462Z,28.70
2018-10-09T17:07:32.998Z,28.17
2018-10-09T17:10:01.446Z,30.10
2018-10-09T17:12:29.861Z,29.42
2018-10-09T17:14:58.193Z,30.40
2018-10-09T17:17:27.577Z,29.12
2018-10-09T17:19:55.215Z,29.33
2018-10-09T17:22:25.521Z,29.08
2018-10-09T17:24:54.777Z,31.40
2018-10-09T17:27:22.741Z,29.52
2018-10-09T17:30:11.699Z,29.15
2018-10-09T17:32:59.771Z,28.05
2018-10-09T17:35:49.022Z,31.08
2018-10-09T17:38:37.519Z,27.33
2018-10-09T17:41:13.933Z,28.20
2018-10-09T17:44:03.066Z,27.62
2018-10-09T17:46:46.793Z,31.12
2018-10-09T17:49:36.000Z,29.80
2018-10-09T17:52:24.284Z,28.87
2018-10-09T17:55:13.385Z,30.42
2018-10-09T17:58:02.543Z,29.02
2018-10-09T18:00:51.040Z,31.95
2018-10-09T18:06:28.006Z,32.15
2018-10-09T18:09:16.230Z,34.70
2018-10-09T18:12:02.401Z,31.75
2018-10-09T18:14:49.880Z,29.60
2018-10-09T18:17:37.188Z,29.42
2018-10-09T18:20:23.963Z,31.30
2018-10-09T18:23:11.850Z,30.83
2018-10-09T18:25:56.184Z,32.30
2018-10-09T18:28:42.538Z,33.67
2018-10-09T18:31:30.060Z,32.92
2018-10-09T18:34:17.280Z,35.97
2018-10-09T18:37:07.630Z,36.72
2018-10-09T18:39:51.665Z,33.65
2018-10-09T18:42:21.252Z,33.72
2018-10-09T18:45:05.585Z,34.55
2018-10-09T18:50:38.856Z,37.00
2018-10-09T18:53:24.049Z,39.22
2018-10-09T18:56:07.411Z,39.50
2018-10-09T18:58:55.238Z,37.95
2018-10-09T19:01:44.232Z,34.75
2018-10-09T19:04:31.042Z,35.97
2018-10-09T19:07:22.952Z,34.00
2018-10-09T19:10:09.278Z,36.20
2018-10-09T19:15:45.310Z,39.83
2018-10-09T19:18:37.073Z,36.88
2018-10-09T19:21:27.655Z,34.72
2018-10-09T19:24:16.502Z,33.97
2018-10-09T19:27:02.130Z,35.17
2018-10-09T19:29:47.354Z,33.25
2018-10-09T19:32:18.108Z,35.97
2018-10-09T19:35:02.181Z,34.55
2018-10-09T19:37:50.545Z,35.13
2018-10-09T19:40:36.736Z,32.88
2018-10-09T19:43:25.170Z,33.10
2018-10-09T19:46:05.227Z,31.70
2018-10-09T19:48:48.909Z,31.60
2018-10-09T19:51:34.600Z,30.65
2018-10-09T19:54:20.686Z,31.85
2018-10-09T19:57:07.542Z,32.15
2018-10-09T19:59:58.842Z,34.75
2018-10-09T20:02:44.879Z,32.63
2018-10-09T20:05:29.585Z,33.92
2018-10-09T20:08:20.410Z,34.47
2018-10-09T20:11:04.859Z,34.85
2018-10-09T20:13:51.341Z,37.42
2018-10-09T20:16:33.788Z,34.88
2018-10-09T20:19:18.186Z,36.63
2018-10-09T20:22:03.098Z,32.65
2018-10-09T20:24:43.660Z,33.08
2018-10-09T20:27:26.676Z,37.40
2018-10-09T20:30:11.002Z,32.58
2018-10-09T20:32:50.106Z,32.53
2018-10-09T20:35:32.946Z,34.08
2018-10-09T20:38:20.780Z,35.17
2018-10-09T20:41:08.578Z,37.15
2018-10-09T20:43:55.461Z,35.05
2018-10-09T20:46:42.789Z,33.15
2018-10-09T20:49:29.769Z,33.25
2018-10-09T20:52:23.616Z,36.40
2018-10-09T20:55:08.030Z,32.60
2018-10-09T20:57:53.195Z,34.22
2018-10-09T21:00:40.088Z,36.72
2018-10-09T21:03:25.749Z,32.35
2018-10-09T21:06:13.548Z,35.03
2018-10-09T21:08:58.851Z,32.50
2018-10-09T21:11:44.236Z,34.10
2018-10-09T21:14:31.829Z,33.15
2018-10-09T21:17:17.094Z,34.47
2018-10-09T21:20:03.143Z,33.97
2018-10-09T21:22:49.346Z,33.83
2018-10-09T21:25:38.162Z,34.55
2018-10-09T21:28:24.294Z,33.45
2018-10-09T21:31:11.565Z,35.58
2018-10-09T21:33:56.700Z,32.85
2018-10-09T21:36:42.251Z,32.97
2018-10-09T21:39:28.413Z,32.83
2018-10-09T21:42:14.645Z,32.28
2018-10-09T21:47:44.325Z,34.58
2018-10-09T21:50:27.773Z,33.78
2018-10-09T21:53:13.349Z,32.45
2018-10-09T21:56:00.107Z,35.70
2018-10-09T21:58:27.141Z,33.72
2018-10-09T22:00:54.194Z,30.88
2018-10-09T22:03:21.240Z,30.58
2018-10-09T22:05:48.389Z,30.85
2018-10-09T22:08:15.439Z,31.23
2018-10-09T22:10:42.492Z,34.40
2018-10-09T22:13:09.536Z,32.38
2018-10-09T22:15:36.604Z,32.55
2018-10-09T22:18:03.638Z,35.03
2018-10-09T22:20:30.683Z,30.55
2018-10-09T22:22:57.727Z,34.33
2018-10-09T22:25:24.784Z,31.73
2018-10-09T22:27:51.826Z,30.67
2018-10-09T22:30:18.778Z,31.75
2018-10-09T22:32:45.769Z,31.65
2018-10-09T22:35:12.723Z,30.92
2018-10-09T22:37:39.715Z,28.60
2018-10-09T22:40:06.669Z,27.58
2018-10-09T22:42:33.712Z,32.13
2018-10-09T22:45:01.071Z,26.42
2018-10-09T22:47:32.799Z,29.12
2018-10-09T22:49:59.777Z,27.35
2018-10-09T22:52:26.826Z,27.05
2018-10-09T22:54:53.866Z,25.98
2018-10-09T22:57:21.019Z,28.02
2018-10-09T22:59:48.066Z,24.70
2018-10-09T23:02:15.127Z,31.23
2018-10-09T23:04:42.164Z,26.75
2018-10-09T23:07:09.212Z,30.02
2018-10-09T23:09:36.266Z,24.87
2018-10-09T23:12:03.309Z,26.45
2018-10-09T23:14:31.383Z,25.12
2018-10-09T23:16:58.532Z,27.10
2018-10-09T23:19:25.497Z,24.75
2018-10-09T23:21:53.964Z,24.52
2018-10-09T23:24:21.678Z,25.12
2018-10-09T23:26:49.289Z,28.02
2018-10-09T23:29:16.337Z,23.45
2018-10-09T23:31:43.391Z,23.75
2018-10-09T23:34:10.434Z,23.73
2018-10-09T23:36:39.739Z,24.67
2018-10-09T23:39:06.785Z,26.75
2018-10-09T23:41:33.839Z,23.48
2018-10-09T23:44:00.881Z,23.73
2018-10-09T23:46:27.933Z,23.05
2018-10-09T23:48:54.985Z,21.45
2018-10-09T23:51:21.927Z,22.30
2018-10-09T23:53:48.980Z,22.43
2018-10-09T23:56:16.035Z,21.63
2018-10-09T23:58:43.087Z,20.73
